MSC Clorinda — 3FDW7 — position and weather

sailwx.info

Track history (hours):
 
Tides and Currents Weather Stations Pressure Air Temp Water Temp Dewpoint Dewpoint Depression Visibility Wind Speed Wind Dir Waves Ship Positions

MSC Clorinda

Last reported at 2015-May-16 16:27 UTC. Time now 2015-May-24 11:20 UTC.
Position N 01°60' E 102°12'.

Length 366 m; draft 13.7 m.

Type: Ship (hazmat cat A). MMSI: 373233000.

Date/timePositionNaut miles runAvg speedWind from/ knotsBaromVisibWave heightAir tempDewpointWater temp
2015-May-16 16:27N 01°60' E 102°12'1820.6
2015-May-16 15:33N 01°51' E 102°28'2219.9
2015-May-16 14:27N 01°42' E 102°48'6817.3
2015-May-16 10:33N 01°12' E 103°49'6 4.1
2015-May-16 09:11N 01°16' E 103°46'0 0.0
2015-May-16 02:29N 01°16' E 103°46'0 0.0
2015-May-16 00:29N 01°16' E 103°46'0 0.0
2015-May-15 23:32N 01°16' E 103°46'0 0.0
2015-May-15 19:14N 01°16' E 103°46'0 0.0
2015-May-15 18:13N 01°16' E 103°46'0 0.0
2015-May-15 17:33N 01°16' E 103°46'0 0.0
2015-May-15 16:31N 01°16' E 103°46'1 1.3
2015-May-15 15:33N 01°15' E 103°47'2 2.1
2015-May-15 14:33N 01°13' E 103°48'6 5.6
2015-May-15 13:33N 01°13' E 103°53'6 6.2
2015-May-15 12:33N 01°15' E 103°59'9 8.8
2015-May-15 11:33N 01°17' E 104°08'1211.3
2015-May-15 10:29N 01°19' E 104°20'  
2015-May-12 12:15N 21°54' E 114°24'1420.4
2015-May-12 11:33N 22°08' E 114°27'15 0.9
2015-May-11 19:13N 22°23' E 114°29'812.3
2015-May-11 18:33N 22°16' E 114°33'1 1.0
2015-May-11 17:26N 22°17' E 114°33'1 0.9
2015-May-11 16:32N 22°18' E 114°33'1 1.4
2015-May-11 15:33N 22°19' E 114°34'1312.4
2015-May-11 14:32N 22°08' E 114°27'1713.3
2015-May-11 13:18N 22°12' E 114°10'810.9
2015-May-11 12:33N 22°19' E 114°05'1010.1
2015-May-11 11:33N 22°22' E 113°55'6 5.0
2015-May-11 10:22N 22°28' E 113°53'0 0.0
2015-May-11 09:28N 22°28' E 113°53'0 0.0
2015-May-11 08:31N 22°28' E 113°53'0 0.0
2015-May-11 07:31N 22°28' E 113°53'0 0.0
2015-May-11 06:31N 22°28' E 113°53'0 0.0
2015-May-11 05:28N 22°28' E 113°53'0 0.0
2015-May-11 04:31N 22°28' E 113°53'0 0.0
2015-May-11 03:34N 22°28' E 113°53'0 0.0
2015-May-11 02:34N 22°28' E 113°53'0 0.1
2015-May-11 01:34N 22°27' E 113°53'8 7.3
2015-May-11 00:29N 22°21' E 113°57'9 9.9
2015-May-10 23:33N 22°17' E 114°06'1010.4
2015-May-10 22:33N 22°09' E 114°14'1010.0
2015-May-10 21:34N 22°08' E 114°24'1010.1
2015-May-10 20:34N 22°09' E 114°35'23215.0
2015-May-10 05:05N 23°50' E 118°22'915.5
2015-May-10 04:32N 23°55' E 118°29'3416.2
2015-May-10 02:24N 24°17' E 118°59'1416.7
2015-May-10 01:33N 24°25' E 119°11'2016.9
2015-May-10 00:22N 24°38' E 119°29'38415.4
2015-May-08 23:31N 30°34' E 122°11'8 4.1
2015-May-08 21:28N 30°38' E 122°03'0 0.0
2015-May-08 19:32N 30°38' E 122°03'0 0.0
2015-May-08 18:26N 30°38' E 122°03'0 0.0
2015-May-08 16:29N 30°38' E 122°03'0 0.0
2015-May-08 12:29N 30°38' E 122°03'0 0.0
2015-May-08 11:33N 30°38' E 122°03'0 0.1
2015-May-08 10:33N 30°38' E 122°03'3 2.8
2015-May-08 09:33N 30°36' E 122°05'9 9.0
2015-May-08 08:33N 30°33' E 122°15'9 8.2
2015-May-08 07:30N 30°32' E 122°25'1010.1
2015-May-08 06:33N 30°30' E 122°36'9 7.9
2015-May-08 05:27N 30°25' E 122°45'0 0.0
2015-May-08 01:26N 30°25' E 122°45'6 6.7
2015-May-08 00:31N 30°19' E 122°46'3516.5
2015-May-07 22:25N 29°45' E 122°38'1314.6
2015-May-07 21:31N 29°43' E 122°23'1313.2
2015-May-07 20:33N 29°51' E 122°12'9 8.2
2015-May-07 19:31N 29°53' E 122°03'0 0.0
2015-May-07 18:13N 29°53' E 122°03'0 0.0
2015-May-07 17:25N 29°53' E 122°03'0 0.0
2015-May-07 16:25N 29°53' E 122°03'0 0.0
2015-May-07 15:25N 29°53' E 122°03'0 0.0
2015-May-07 14:07N 29°53' E 122°03'0 0.0
2015-May-07 13:19N 29°53' E 122°03'0 0.0
2015-May-07 12:13N 29°53' E 122°03'0 0.0
2015-May-07 11:13N 29°53' E 122°03'0 0.0
2015-May-07 08:13N 29°53' E 122°03'0 0.0
2015-May-07 06:25N 29°53' E 122°03'0 0.0
2015-May-07 03:29N 29°53' E 122°03'0 0.0
2015-May-07 02:33N 29°53' E 122°03'0 0.0
2015-May-07 01:33N 29°53' E 122°03'0 0.1
2015-May-07 00:33N 29°53' E 122°03'3 2.5
2015-May-06 23:33N 29°55' E 122°05'6 6.0
2015-May-06 22:33N 29°53' E 122°11'10 9.5
2015-May-06 21:33N 29°46' E 122°18'8 8.3
2015-May-06 20:33N 29°43' E 122°27'9 9.2
2015-May-06 19:33N 29°42' E 122°38'1010.1
2015-May-06 18:31N 29°47' E 122°48'1010.6
2015-May-06 17:33N 29°54' E 122°57'  
Track history (hours):
 
Tides and Currents Weather Stations Pressure Air Temp Water Temp Dewpoint Dewpoint Depression Visibility Wind Speed Wind Dir Waves Ship Positions

MSC Clorinda

Last reported at 2015-May-16 16:27 UTC. Time now 2015-May-24 11:20 UTC.
Position N 01°60' E 102°12'.

Length 366 m; draft 13.7 m.

Type: Ship (hazmat cat A). MMSI: 373233000.

Date/timePositionNaut miles runAvg speedWind from/ knotsBaromVisibWave heightAir tempDewpointWater temp
2015-May-16 16:27N 01°60' E 102°12'1820.6
2015-May-16 15:33N 01°51' E 102°28'2219.9
2015-May-16 14:27N 01°42' E 102°48'6817.3
2015-May-16 10:33N 01°12' E 103°49'6 4.1
2015-May-16 09:11N 01°16' E 103°46'0 0.0
2015-May-16 02:29N 01°16' E 103°46'0 0.0
2015-May-16 00:29N 01°16' E 103°46'0 0.0
2015-May-15 23:32N 01°16' E 103°46'0 0.0
2015-May-15 19:14N 01°16' E 103°46'0 0.0
2015-May-15 18:13N 01°16' E 103°46'0 0.0
2015-May-15 17:33N 01°16' E 103°46'0 0.0
2015-May-15 16:31N 01°16' E 103°46'1 1.3
2015-May-15 15:33N 01°15' E 103°47'2 2.1
2015-May-15 14:33N 01°13' E 103°48'6 5.6
2015-May-15 13:33N 01°13' E 103°53'6 6.2
2015-May-15 12:33N 01°15' E 103°59'9 8.8
2015-May-15 11:33N 01°17' E 104°08'1211.3
2015-May-15 10:29N 01°19' E 104°20'  
2015-May-12 12:15N 21°54' E 114°24'1420.4
2015-May-12 11:33N 22°08' E 114°27'15 0.9
2015-May-11 19:13N 22°23' E 114°29'812.3
2015-May-11 18:33N 22°16' E 114°33'1 1.0
2015-May-11 17:26N 22°17' E 114°33'1 0.9
2015-May-11 16:32N 22°18' E 114°33'1 1.4
2015-May-11 15:33N 22°19' E 114°34'1312.4
2015-May-11 14:32N 22°08' E 114°27'1713.3
2015-May-11 13:18N 22°12' E 114°10'810.9
2015-May-11 12:33N 22°19' E 114°05'1010.1
2015-May-11 11:33N 22°22' E 113°55'6 5.0
2015-May-11 10:22N 22°28' E 113°53'0 0.0
2015-May-11 09:28N 22°28' E 113°53'0 0.0
2015-May-11 08:31N 22°28' E 113°53'0 0.0
2015-May-11 07:31N 22°28' E 113°53'0 0.0
2015-May-11 06:31N 22°28' E 113°53'0 0.0
2015-May-11 05:28N 22°28' E 113°53'0 0.0
2015-May-11 04:31N 22°28' E 113°53'0 0.0
2015-May-11 03:34N 22°28' E 113°53'0 0.0
2015-May-11 02:34N 22°28' E 113°53'0 0.1
2015-May-11 01:34N 22°27' E 113°53'8 7.3
2015-May-11 00:29N 22°21' E 113°57'9 9.9
2015-May-10 23:33N 22°17' E 114°06'1010.4
2015-May-10 22:33N 22°09' E 114°14'1010.0
2015-May-10 21:34N 22°08' E 114°24'1010.1
2015-May-10 20:34N 22°09' E 114°35'23215.0
2015-May-10 05:05N 23°50' E 118°22'915.5
2015-May-10 04:32N 23°55' E 118°29'3416.2
2015-May-10 02:24N 24°17' E 118°59'1416.7
2015-May-10 01:33N 24°25' E 119°11'2016.9
2015-May-10 00:22N 24°38' E 119°29'38415.4
2015-May-08 23:31N 30°34' E 122°11'8 4.1
2015-May-08 21:28N 30°38' E 122°03'0 0.0
2015-May-08 19:32N 30°38' E 122°03'0 0.0
2015-May-08 18:26N 30°38' E 122°03'0 0.0
2015-May-08 16:29N 30°38' E 122°03'0 0.0
2015-May-08 12:29N 30°38' E 122°03'0 0.0
2015-May-08 11:33N 30°38' E 122°03'0 0.1
2015-May-08 10:33N 30°38' E 122°03'3 2.8
2015-May-08 09:33N 30°36' E 122°05'9 9.0
2015-May-08 08:33N 30°33' E 122°15'9 8.2
2015-May-08 07:30N 30°32' E 122°25'1010.1
2015-May-08 06:33N 30°30' E 122°36'9 7.9
2015-May-08 05:27N 30°25' E 122°45'0 0.0
2015-May-08 01:26N 30°25' E 122°45'6 6.7
2015-May-08 00:31N 30°19' E 122°46'3516.5
2015-May-07 22:25N 29°45' E 122°38'1314.6
2015-May-07 21:31N 29°43' E 122°23'1313.2
2015-May-07 20:33N 29°51' E 122°12'9 8.2
2015-May-07 19:31N 29°53' E 122°03'0 0.0
2015-May-07 18:13N 29°53' E 122°03'0 0.0
2015-May-07 17:25N 29°53' E 122°03'0 0.0
2015-May-07 16:25N 29°53' E 122°03'0 0.0
2015-May-07 15:25N 29°53' E 122°03'0 0.0
2015-May-07 14:07N 29°53' E 122°03'0 0.0
2015-May-07 13:19N 29°53' E 122°03'0 0.0
2015-May-07 12:13N 29°53' E 122°03'0 0.0
2015-May-07 11:13N 29°53' E 122°03'0 0.0
2015-May-07 08:13N 29°53' E 122°03'0 0.0
2015-May-07 06:25N 29°53' E 122°03'0 0.0
2015-May-07 03:29N 29°53' E 122°03'0 0.0
2015-May-07 02:33N 29°53' E 122°03'0 0.0
2015-May-07 01:33N 29°53' E 122°03'0 0.1
2015-May-07 00:33N 29°53' E 122°03'3 2.5
2015-May-06 23:33N 29°55' E 122°05'6 6.0
2015-May-06 22:33N 29°53' E 122°11'10 9.5
2015-May-06 21:33N 29°46' E 122°18'8 8.3
2015-May-06 20:33N 29°43' E 122°27'9 9.2
2015-May-06 19:33N 29°42' E 122°38'1010.1
2015-May-06 18:31N 29°47' E 122°48'1010.6
2015-May-06 17:33N 29°54' E 122°57'  

Dump ship's entire track history